createdAt,value
2023-04-07T00:01:06.680Z,9.80
2023-04-07T00:03:55.192Z,10.00
2023-04-07T00:06:45.254Z,10.10
2023-04-07T00:09:33.769Z,9.90
2023-04-07T00:12:22.160Z,9.40
2023-04-07T00:15:11.233Z,9.50
2023-04-07T00:18:01.092Z,9.60
2023-04-07T00:20:49.611Z,9.30
2023-04-07T00:23:38.073Z,9.60
2023-04-07T00:26:29.116Z,9.20
2023-04-07T00:29:17.646Z,9.00
2023-04-07T00:32:06.200Z,9.40
2023-04-07T00:34:56.163Z,9.70
2023-04-07T00:37:44.716Z,10.00
2023-04-07T00:40:33.155Z,10.00
2023-04-07T00:43:21.592Z,10.20
2023-04-07T00:46:10.124Z,10.10
2023-04-07T00:48:58.619Z,9.90
2023-04-07T00:51:48.532Z,9.90
2023-04-07T00:54:36.990Z,9.90
2023-04-07T00:57:25.520Z,10.20
2023-04-07T01:00:15.323Z,10.00
2023-04-07T01:03:10.802Z,11.50
2023-04-07T01:06:02.668Z,10.20
2023-04-07T01:08:58.441Z,10.00
2023-04-07T01:11:59.544Z,9.70
2023-04-07T01:14:53.086Z,9.90
2023-04-07T01:17:59.766Z,10.00
2023-04-07T01:20:51.422Z,9.90
2023-04-07T01:24:09.181Z,9.80
2023-04-07T01:44:01.470Z,9.30
2023-04-07T01:46:52.032Z,9.30
2023-04-07T01:49:41.968Z,9.40
2023-04-07T01:52:31.098Z,9.20
2023-04-07T01:55:19.609Z,9.00
2023-04-07T01:58:08.453Z,9.30
2023-04-07T02:00:57.015Z,9.40
2023-04-07T02:03:53.361Z,9.50
2023-04-07T02:06:49.227Z,9.20
2023-04-07T02:09:40.914Z,9.30
2023-04-07T02:12:31.213Z,9.60
2023-04-07T02:15:20.723Z,9.70
2023-04-07T02:18:10.635Z,9.80
2023-04-07T02:21:01.886Z,10.00
2023-04-07T02:23:50.688Z,10.10
2023-04-07T02:26:39.208Z,10.30
2023-04-07T02:29:27.696Z,10.50
2023-04-07T02:32:17.866Z,10.50
2023-04-07T02:35:07.249Z,10.50
2023-04-07T02:37:57.164Z,10.00
2023-04-07T02:40:45.685Z,9.90
2023-04-07T02:43:34.109Z,10.20
2023-04-07T02:46:22.525Z,10.30
2023-04-07T02:49:11.076Z,10.50
2023-04-07T02:51:59.563Z,10.60
2023-04-07T02:54:49.410Z,10.70
2023-04-07T02:57:37.887Z,10.70
2023-04-07T03:00:26.730Z,10.80
2023-04-07T03:03:15.304Z,10.80
2023-04-07T03:06:03.906Z,10.80
2023-04-07T03:08:52.275Z,10.80
2023-04-07T03:11:42.668Z,10.80
2023-04-07T03:14:31.116Z,10.80
2023-04-07T03:17:19.548Z,10.80
2023-04-07T03:20:09.584Z,10.80
2023-04-07T03:22:58.018Z,10.80
2023-04-07T03:25:47.569Z,10.80
2023-04-07T03:28:38.408Z,10.80
2023-04-07T03:31:27.012Z,10.70
2023-04-07T03:34:15.556Z,10.60
2023-04-07T03:37:04.117Z,10.60
2023-04-07T03:39:52.580Z,10.60
2023-04-07T03:42:41.298Z,10.50
2023-04-07T03:45:31.216Z,10.50
2023-04-07T03:48:19.656Z,10.50
2023-04-07T03:51:08.242Z,10.60
2023-04-07T03:53:56.825Z,10.60
2023-04-07T03:56:45.763Z,10.50
2023-04-07T03:59:34.232Z,10.50
2023-04-07T04:02:24.161Z,10.40
2023-04-07T04:05:12.692Z,10.40
2023-04-07T04:08:01.198Z,10.30
2023-04-07T04:10:49.634Z,10.30
2023-04-07T04:13:38.039Z,10.00
2023-04-07T04:16:26.441Z,10.00
2023-04-07T04:19:16.518Z,9.50
2023-04-07T04:22:04.940Z,9.20
2023-04-07T04:24:53.433Z,9.00
2023-04-07T04:27:41.917Z,8.00
2023-04-07T04:30:30.337Z,7.80
2023-04-07T04:33:18.813Z,8.20
2023-04-07T04:36:09.204Z,8.50
2023-04-07T04:38:57.738Z,8.40
2023-04-07T04:41:47.142Z,8.20
2023-04-07T04:44:35.675Z,8.10
2023-04-07T04:47:24.223Z,8.30
2023-04-07T04:50:12.999Z,8.20
2023-04-07T04:53:02.853Z,8.50
2023-04-07T04:55:53.405Z,8.40
2023-04-07T04:58:46.189Z,8.20
2023-04-07T05:01:34.682Z,8.20
2023-04-07T05:04:23.358Z,7.80
2023-04-07T05:07:12.006Z,7.80
2023-04-07T05:10:02.100Z,7.70
2023-04-07T05:12:50.982Z,7.40
2023-04-07T05:15:39.808Z,7.60
2023-04-07T05:18:28.223Z,7.80
2023-04-07T05:21:16.738Z,8.00
2023-04-07T05:24:06.280Z,8.30
2023-04-07T05:26:57.956Z,8.70
2023-04-07T05:29:46.372Z,9.00
2023-04-07T05:32:34.866Z,9.20
2023-04-07T05:35:23.999Z,9.30
2023-04-07T05:38:12.425Z,9.50
2023-04-07T05:41:00.852Z,9.70
2023-04-07T05:43:50.825Z,9.90
2023-04-07T05:46:39.325Z,9.80
2023-04-07T05:49:27.831Z,10.00
2023-04-07T05:52:16.533Z,10.10
2023-04-07T05:55:06.179Z,10.20
2023-04-07T05:57:54.689Z,10.30
2023-04-07T06:00:44.473Z,10.30
2023-04-07T06:03:33.093Z,10.40
2023-04-07T06:06:21.768Z,10.40
2023-04-07T06:09:10.304Z,10.10
2023-04-07T06:11:58.974Z,9.80
2023-04-07T06:14:52.623Z,9.80
2023-04-07T06:17:43.974Z,10.10
2023-04-07T06:20:32.462Z,10.40
2023-04-07T06:23:21.042Z,10.50
2023-04-07T06:26:12.290Z,10.70
2023-04-07T06:29:00.934Z,10.80
2023-04-07T06:31:49.339Z,10.80
2023-04-07T06:34:39.241Z,10.70
2023-04-07T06:37:27.692Z,10.70
2023-04-07T06:40:16.064Z,10.80
2023-04-07T06:43:05.144Z,10.90
2023-04-07T06:45:53.643Z,11.00
2023-04-07T06:48:42.069Z,11.20
2023-04-07T06:51:32.523Z,11.30
2023-04-07T06:54:21.765Z,11.30
2023-04-07T06:57:12.267Z,11.10
2023-04-07T07:00:01.162Z,11.20
2023-04-07T07:02:49.888Z,11.40
2023-04-07T07:05:38.358Z,11.60
2023-04-07T07:08:29.211Z,11.80
2023-04-07T07:11:17.639Z,11.80
2023-04-07T07:14:06.180Z,12.00
2023-04-07T07:16:54.646Z,12.10
2023-04-07T07:19:43.132Z,12.20
2023-04-07T07:22:31.556Z,12.50
2023-04-07T07:25:21.356Z,12.70
2023-04-07T07:28:09.923Z,12.80
2023-04-07T07:30:58.319Z,13.00
2023-04-07T07:33:48.616Z,13.20
2023-04-07T07:36:37.349Z,13.50
2023-04-07T07:39:25.789Z,13.70
2023-04-07T07:42:15.656Z,14.00
2023-04-07T07:45:04.829Z,13.90
2023-04-07T07:47:53.368Z,13.90
2023-04-07T07:50:42.884Z,14.10
2023-04-07T07:53:31.364Z,14.10
2023-04-07T07:56:19.752Z,14.20
2023-04-07T07:59:09.635Z,14.40
2023-04-07T08:30:10.074Z,14.10
2023-04-07T09:12:39.954Z,15.60
2023-04-07T09:15:31.873Z,15.70
2023-04-07T09:18:20.830Z,15.70
2023-04-07T09:21:09.852Z,15.70
2023-04-07T09:58:32.448Z,17.00
2023-04-07T10:01:23.052Z,17.00
2023-04-07T10:07:01.583Z,17.20
2023-04-07T10:09:50.006Z,17.20
2023-04-07T10:12:39.337Z,17.20
2023-04-07T10:15:29.258Z,17.20
2023-04-07T10:18:21.489Z,17.10
2023-04-07T10:21:15.179Z,17.00
2023-04-07T10:24:19.849Z,17.00
2023-04-07T10:27:11.938Z,17.10
2023-04-07T10:30:01.472Z,17.00
2023-04-07T10:32:54.680Z,17.10
2023-04-07T10:36:07.483Z,17.00
2023-04-07T10:39:21.502Z,16.90
2023-04-07T10:42:48.889Z,16.90
2023-04-07T10:46:03.013Z,17.00
2023-04-07T10:49:10.516Z,17.10
2023-04-07T10:52:24.515Z,17.20
2023-04-07T10:55:38.077Z,17.30
2023-04-07T10:58:29.018Z,17.30
2023-04-07T11:01:21.826Z,17.40
2023-04-07T11:04:11.800Z,17.40
2023-04-07T11:07:00.504Z,17.40
2023-04-07T11:09:49.025Z,17.30
2023-04-07T11:12:37.578Z,17.30
2023-04-07T11:15:26.194Z,17.50
2023-04-07T11:18:18.020Z,17.50
2023-04-07T11:21:09.293Z,17.40
2023-04-07T11:23:57.704Z,17.40
2023-04-07T11:26:48.324Z,17.30
2023-04-07T11:29:38.685Z,17.10
2023-04-07T11:32:29.893Z,17.00
2023-04-07T11:35:18.623Z,17.00
2023-04-07T11:38:08.595Z,17.00
2023-04-07T11:40:57.867Z,17.10
2023-04-07T11:43:46.727Z,17.10
2023-04-07T11:46:36.160Z,17.10
2023-04-07T11:49:26.154Z,17.10
2023-04-07T11:52:14.880Z,17.10
2023-04-07T11:55:04.859Z,17.20
2023-04-07T11:57:53.938Z,17.20
2023-04-07T12:00:55.881Z,17.30
2023-04-07T12:03:59.234Z,17.30
2023-04-07T12:06:50.114Z,17.30
2023-04-07T12:09:38.958Z,17.20
2023-04-07T12:12:29.732Z,17.20
2023-04-07T12:15:18.225Z,17.30
2023-04-07T12:18:06.978Z,17.30
2023-04-07T12:20:55.607Z,17.30
2023-04-07T12:23:44.060Z,17.10
2023-04-07T12:26:32.515Z,17.00
2023-04-07T12:29:22.322Z,16.90
2023-04-07T12:32:11.189Z,16.90
2023-04-07T12:34:59.763Z,16.80
2023-04-07T12:37:50.021Z,16.80
2023-04-07T14:25:12.570Z,16.10
2023-04-07T14:28:02.510Z,16.00
2023-04-07T14:30:51.625Z,15.90
2023-04-07T14:33:40.118Z,15.80
2023-04-07T14:36:28.500Z,15.70
2023-04-07T14:39:16.906Z,15.50
2023-04-07T14:42:05.541Z,15.40
2023-04-07T14:44:55.676Z,15.30
2023-04-07T14:47:44.159Z,15.30
2023-04-07T14:50:33.654Z,15.20
2023-04-07T14:53:22.619Z,15.20
2023-04-07T14:56:11.045Z,15.20
2023-04-07T14:58:59.427Z,15.20
2023-04-07T15:01:49.403Z,15.20
2023-04-07T15:04:38.023Z,14.60
2023-04-07T15:07:26.677Z,14.20
2023-04-07T15:10:15.093Z,13.80
2023-04-07T15:13:03.743Z,13.90
2023-04-07T15:15:52.182Z,14.10
2023-04-07T15:18:44.519Z,14.10
2023-04-07T15:21:32.981Z,14.20
2023-04-07T15:24:22.299Z,14.40
2023-04-07T15:27:10.988Z,14.40
2023-04-07T15:29:59.862Z,14.20
2023-04-07T15:32:59.069Z,14.10
2023-04-07T15:35:49.001Z,13.90
2023-04-07T15:38:38.851Z,14.00
2023-04-07T15:41:27.324Z,14.20
2023-04-07T15:44:19.259Z,14.40
2023-04-07T15:47:07.884Z,14.50
2023-04-07T15:49:56.406Z,14.60
2023-04-07T15:52:46.214Z,14.60
2023-04-07T15:55:35.086Z,14.70
2023-04-07T15:58:23.504Z,14.70
2023-04-07T16:01:12.173Z,14.70
2023-04-07T16:04:00.809Z,14.80
2023-04-07T16:06:49.337Z,15.00
2023-04-07T16:09:39.134Z,14.70
2023-04-07T16:12:27.647Z,14.80
2023-04-07T16:15:22.536Z,14.70
2023-04-07T16:18:21.824Z,14.80
2023-04-07T16:21:11.116Z,14.80
2023-04-07T16:23:59.530Z,14.80
2023-04-07T16:26:50.561Z,14.80
2023-04-07T16:29:39.090Z,14.70
2023-04-07T16:32:27.702Z,14.70
2023-04-07T16:35:16.789Z,14.80
2023-04-07T16:38:06.187Z,14.80
2023-04-07T16:43:54.885Z,14.10
2023-04-07T16:46:43.437Z,14.00
2023-04-07T16:49:31.870Z,14.20
2023-04-07T16:52:20.839Z,14.30
2023-04-07T16:55:09.685Z,14.20
2023-04-07T16:57:58.126Z,13.70
2023-04-07T17:00:48.015Z,13.90
2023-04-07T17:03:37.135Z,14.40
2023-04-07T17:06:25.830Z,14.00
2023-04-07T17:09:16.168Z,14.00
2023-04-07T17:12:05.876Z,13.90
2023-04-07T17:14:54.387Z,14.00
2023-04-07T17:17:44.365Z,14.10
2023-04-07T17:20:32.938Z,14.20
2023-04-07T17:23:22.031Z,14.20
2023-04-07T17:26:10.610Z,14.30
2023-04-07T17:29:00.003Z,14.20
2023-04-07T17:31:50.783Z,14.20
2023-04-07T17:34:41.070Z,14.30
2023-04-07T17:37:29.636Z,14.10
2023-04-07T17:40:18.167Z,14.00
2023-04-07T17:43:06.654Z,14.10
2023-04-07T17:45:55.469Z,14.20
2023-04-07T17:51:35.414Z,13.20
2023-04-07T17:54:24.136Z,13.30
2023-04-07T17:57:14.220Z,13.40
2023-04-07T18:00:02.823Z,13.40
2023-04-07T18:02:51.476Z,13.30
2023-04-07T18:05:44.815Z,13.40
2023-04-07T18:08:34.659Z,13.40
2023-04-07T18:11:23.171Z,13.60
2023-04-07T18:14:11.616Z,13.40
2023-04-07T18:17:00.037Z,13.40
2023-04-07T18:19:48.545Z,13.40
2023-04-07T18:22:37.357Z,13.60
2023-04-07T18:25:27.227Z,13.50
2023-04-07T18:28:17.043Z,13.30
2023-04-07T18:31:08.130Z,13.10
2023-04-07T19:52:56.479Z,11.80
2023-04-07T19:55:45.212Z,11.70
2023-04-07T19:58:34.615Z,11.20
2023-04-07T20:01:23.098Z,10.90
2023-04-07T20:04:11.587Z,11.00
2023-04-07T20:07:01.637Z,11.60
2023-04-07T20:09:51.486Z,11.40
2023-04-07T20:12:40.019Z,11.60
2023-04-07T20:15:28.568Z,11.60
2023-04-07T20:21:07.120Z,11.90
2023-04-07T20:23:57.210Z,11.50
2023-04-07T20:26:45.830Z,11.20
2023-04-07T20:29:34.319Z,10.90
2023-04-07T20:32:22.795Z,11.10
2023-04-07T20:43:41.921Z,12.20
2023-04-07T20:46:30.924Z,12.30
2023-04-07T20:49:19.478Z,12.60
2023-04-07T20:52:08.279Z,12.60
2023-04-07T20:54:56.691Z,12.60
2023-04-07T20:57:46.641Z,12.70
2023-04-07T21:00:35.112Z,13.00
2023-04-07T21:03:23.895Z,12.80
2023-04-07T21:06:12.407Z,12.80
2023-04-07T21:09:01.399Z,12.90
2023-04-07T21:11:49.786Z,12.90
2023-04-07T21:14:39.566Z,12.90
2023-04-07T21:17:28.032Z,12.90
2023-04-07T21:20:16.832Z,12.90
2023-04-07T21:23:06.052Z,12.90
2023-04-07T21:25:54.468Z,12.90
2023-04-07T21:28:42.982Z,13.10
2023-04-07T21:31:33.820Z,13.00
2023-04-07T21:34:22.319Z,13.00
2023-04-07T21:37:10.752Z,13.00
2023-04-07T21:39:59.257Z,13.00
2023-04-07T21:42:47.966Z,13.10
2023-04-07T21:45:36.387Z,13.10
2023-04-07T21:48:26.247Z,13.10
2023-04-07T21:51:14.652Z,13.10
2023-04-07T21:54:03.086Z,13.10
2023-04-07T21:56:52.750Z,13.00
2023-04-07T21:59:41.206Z,13.10
2023-04-07T22:02:29.848Z,13.10
2023-04-07T22:05:20.080Z,13.00
2023-04-07T22:08:08.561Z,13.00
2023-04-07T22:10:58.556Z,13.10
2023-04-07T22:13:46.997Z,13.10
2023-04-07T22:16:35.585Z,13.00
2023-04-07T22:19:24.758Z,13.00
2023-04-07T22:22:14.681Z,13.00
2023-04-07T22:25:03.367Z,13.00
2023-04-07T22:27:52.347Z,13.00
2023-04-07T22:30:40.930Z,13.00
2023-04-07T22:33:29.477Z,12.80
2023-04-07T22:36:17.914Z,12.60
2023-04-07T22:39:08.901Z,12.80
2023-04-07T22:41:57.363Z,12.90
2023-04-07T22:44:46.210Z,12.90
2023-04-07T22:47:34.690Z,13.00
2023-04-07T22:50:23.337Z,12.80
2023-04-07T22:53:11.900Z,12.50
2023-04-07T23:18:35.795Z,11.30
2023-04-07T23:21:24.293Z,11.40
2023-04-07T23:24:12.784Z,11.30
2023-04-07T23:27:01.981Z,11.00
2023-04-07T23:29:51.922Z,10.70
2023-04-07T23:32:40.313Z,10.90
2023-04-07T23:35:28.770Z,11.30
2023-04-07T23:38:17.435Z,11.60
2023-04-07T23:43:55.039Z,12.10
2023-04-07T23:46:44.856Z,12.20
2023-04-07T23:49:33.268Z,12.30
2023-04-07T23:52:21.983Z,12.30
2023-04-07T23:55:11.156Z,12.30
2023-04-07T23:57:59.691Z,12.20
